KAL2027 RKSI-RCTP
Flight info
| Callsign | KAL2027 |
|---|---|
| Flight time | 2h 28m |
| Altitude | 34000 |
| Route | BOPTA Z51 BEDES Y711 MUGUS Y742 SALMI B576 BAKER |
| Aircraft | A21N/M-SDE2E3FGHIJ1RWXY/LB1 |
Departure
| Time | 2026-05-04 01:54 |
|---|---|
| Airport | Incheon International Airport (RKSI) |
Arrival
| Time | 2026-05-04 04:23 |
|---|---|
| Airport | Taiwan Taoyuan International Airport (RCTP) |
| Time | Latitude | Longitude | Altitude | Speed | Heading |
|---|---|---|---|---|---|
| 2026-05-04 01:27 | 37.46432 | 126.43339 | 38 ft | 0 kts | 259° |
| 2026-05-04 01:41 | 37.46435 | 126.43364 | 38 ft | 4 kts | 259° |
| 2026-05-04 01:41 | 37.46441 | 126.43398 | 38 ft | 4 kts | 259° |
| 2026-05-04 01:41 | 37.46446 | 126.43431 | 36 ft | 3 kts | 259° |
| 2026-05-04 01:41 | 37.46452 | 126.43455 | 36 ft | 4 kts | 229° |
| 2026-05-04 01:42 | 37.46473 | 126.43473 | 36 ft | 4 kts | 202° |
| 2026-05-04 01:42 | 37.46489 | 126.43481 | 37 ft | 0 kts | 206° |
| 2026-05-04 01:46 | 37.46480 | 126.43477 | 37 ft | 4 kts | 200° |
| 2026-05-04 01:46 | 37.46443 | 126.43479 | 36 ft | 7 kts | 157° |
| 2026-05-04 01:46 | 37.46396 | 126.43510 | 37 ft | 9 kts | 139° |
| 2026-05-04 01:46 | 37.46343 | 126.43563 | 38 ft | 11 kts | 144° |
| 2026-05-04 01:47 | 37.46278 | 126.43623 | 38 ft | 13 kts | 146° |
| 2026-05-04 01:47 | 37.46195 | 126.43666 | 38 ft | 14 kts | 207° |
| 2026-05-04 01:47 | 37.46129 | 126.43563 | 38 ft | 16 kts | 234° |
| 2026-05-04 01:47 | 37.46068 | 126.43456 | 38 ft | 11 kts | 234° |
| 2026-05-04 01:48 | 37.46021 | 126.43372 | 38 ft | 13 kts | 234° |
| 2026-05-04 01:48 | 37.45966 | 126.43275 | 38 ft | 15 kts | 234° |
| 2026-05-04 01:48 | 37.45883 | 126.43221 | 38 ft | 16 kts | 147° |
| 2026-05-04 01:48 | 37.45786 | 126.43307 | 38 ft | 18 kts | 145° |
| 2026-05-04 01:49 | 37.45721 | 126.43365 | 38 ft | 9 kts | 144° |
| 2026-05-04 01:49 | 37.45665 | 126.43415 | 38 ft | 11 kts | 144° |
| 2026-05-04 01:49 | 37.45598 | 126.43474 | 38 ft | 13 kts | 144° |
| 2026-05-04 01:49 | 37.45521 | 126.43543 | 36 ft | 14 kts | 144° |
| 2026-05-04 01:50 | 37.45434 | 126.43621 | 37 ft | 16 kts | 144° |
| 2026-05-04 01:50 | 37.45338 | 126.43706 | 38 ft | 18 kts | 144° |
| 2026-05-04 01:50 | 37.45234 | 126.43799 | 36 ft | 19 kts | 144° |
| 2026-05-04 01:50 | 37.45122 | 126.43899 | 38 ft | 20 kts | 144° |
| 2026-05-04 01:51 | 37.45010 | 126.43999 | 38 ft | 15 kts | 144° |
| 2026-05-04 01:51 | 37.44920 | 126.44078 | 38 ft | 17 kts | 144° |
| 2026-05-04 01:51 | 37.44821 | 126.44167 | 38 ft | 18 kts | 144° |
| 2026-05-04 01:51 | 37.44715 | 126.44261 | 36 ft | 19 kts | 144° |
| 2026-05-04 01:52 | 37.44606 | 126.44359 | 38 ft | 12 kts | 144° |
| 2026-05-04 01:52 | 37.44532 | 126.44421 | 38 ft | 13 kts | 165° |
| 2026-05-04 01:52 | 37.44459 | 126.44355 | 38 ft | 15 kts | 238° |
| 2026-05-04 01:52 | 37.44395 | 126.44245 | 38 ft | 17 kts | 235° |
| 2026-05-04 01:53 | 37.44364 | 126.44168 | 38 ft | 10 kts | 295° |
| 2026-05-04 01:53 | 37.44421 | 126.44105 | 36 ft | 12 kts | 322° |
| 2026-05-04 01:53 | 37.44436 | 126.44091 | 36 ft | 0 kts | 324° |
| 2026-05-04 01:53 | 37.44568 | 126.43972 | 36 ft | 62 kts | 324° |
| 2026-05-04 01:54 | 37.45117 | 126.43485 | 38 ft | 127 kts | 323° |
| 2026-05-04 01:54 | 37.45976 | 126.42710 | 96 ft | 167 kts | 321° |
| 2026-05-04 01:54 | 37.46868 | 126.41859 | 772 ft | 160 kts | 320° |
| 2026-05-04 01:54 | 37.47738 | 126.40976 | 1400 ft | 156 kts | 317° |
| 2026-05-04 01:55 | 37.48398 | 126.39909 | 1993 ft | 157 kts | 303° |
| 2026-05-04 01:55 | 37.49055 | 126.38815 | 2556 ft | 156 kts | 312° |
| 2026-05-04 01:55 | 37.49765 | 126.37763 | 3134 ft | 158 kts | 310° |
| 2026-05-04 01:55 | 37.50320 | 126.36531 | 3595 ft | 174 kts | 291° |
| 2026-05-04 01:56 | 37.50450 | 126.34924 | 4034 ft | 196 kts | 276° |
| 2026-05-04 01:56 | 37.50475 | 126.33077 | 4358 ft | 221 kts | 276° |
| 2026-05-04 01:56 | 37.50517 | 126.31067 | 4813 ft | 240 kts | 276° |
| 2026-05-04 01:56 | 37.50565 | 126.28915 | 5460 ft | 249 kts | 276° |
| 2026-05-04 01:57 | 37.50614 | 126.26719 | 6259 ft | 253 kts | 276° |
| 2026-05-04 01:57 | 37.50665 | 126.24484 | 7036 ft | 257 kts | 276° |
| 2026-05-04 01:57 | 37.50709 | 126.22224 | 7818 ft | 260 kts | 274° |
| 2026-05-04 01:57 | 37.50423 | 126.19941 | 8576 ft | 272 kts | 255° |
| 2026-05-04 01:58 | 37.49389 | 126.17895 | 9320 ft | 287 kts | 230° |
| 2026-05-04 01:58 | 37.47671 | 126.16514 | 10052 ft | 301 kts | 207° |
| 2026-05-04 01:58 | 37.45649 | 126.15590 | 10457 ft | 319 kts | 202° |
| 2026-05-04 01:58 | 37.43402 | 126.14980 | 10739 ft | 343 kts | 187° |
| 2026-05-04 01:59 | 37.40959 | 126.15276 | 10997 ft | 366 kts | 166° |
| 2026-05-04 01:59 | 37.38595 | 126.16659 | 11334 ft | 381 kts | 144° |
| 2026-05-04 01:59 | 37.36672 | 126.18958 | 11900 ft | 385 kts | 128° |
| 2026-05-04 01:59 | 37.34990 | 126.21603 | 12532 ft | 389 kts | 126° |
| 2026-05-04 02:00 | 37.33280 | 126.24266 | 13166 ft | 395 kts | 127° |
| 2026-05-04 02:00 | 37.31497 | 126.26924 | 13794 ft | 400 kts | 128° |
| 2026-05-04 02:00 | 37.29672 | 126.29580 | 14349 ft | 406 kts | 129° |
| 2026-05-04 02:00 | 37.27806 | 126.32264 | 14889 ft | 411 kts | 129° |
| 2026-05-04 02:01 | 37.25909 | 126.34976 | 15442 ft | 416 kts | 129° |
| 2026-05-04 02:01 | 37.23986 | 126.37717 | 15980 ft | 421 kts | 129° |
| 2026-05-04 02:01 | 37.22045 | 126.40480 | 16507 ft | 426 kts | 129° |
| 2026-05-04 02:01 | 37.19997 | 126.43184 | 17026 ft | 433 kts | 137° |
| 2026-05-04 02:02 | 37.17469 | 126.45256 | 17511 ft | 438 kts | 156° |
| 2026-05-04 02:02 | 37.14618 | 126.46660 | 18030 ft | 442 kts | 162° |
| 2026-05-04 02:02 | 37.11709 | 126.47976 | 18506 ft | 447 kts | 162° |
| 2026-05-04 02:02 | 37.08782 | 126.49322 | 18987 ft | 450 kts | 161° |
| 2026-05-04 02:03 | 37.05821 | 126.50707 | 19481 ft | 454 kts | 161° |
| 2026-05-04 02:03 | 37.02822 | 126.51985 | 19909 ft | 456 kts | 167° |
| 2026-05-04 02:03 | 36.99745 | 126.53016 | 20376 ft | 459 kts | 168° |
| 2026-05-04 02:03 | 36.96649 | 126.54031 | 20854 ft | 462 kts | 168° |
| 2026-05-04 02:04 | 36.93560 | 126.55043 | 21328 ft | 465 kts | 168° |
| 2026-05-04 02:04 | 36.91444 | 126.55738 | 21646 ft | 466 kts | 168° |
| 2026-05-04 02:04 | 36.87253 | 126.57118 | 22243 ft | 471 kts | 168° |
| 2026-05-04 02:04 | 36.84076 | 126.58166 | 22674 ft | 473 kts | 168° |
| 2026-05-04 02:05 | 36.80891 | 126.59216 | 23148 ft | 476 kts | 168° |
| 2026-05-04 02:05 | 36.77687 | 126.60268 | 23584 ft | 478 kts | 168° |
| 2026-05-04 02:05 | 36.74462 | 126.61325 | 23948 ft | 480 kts | 169° |
| 2026-05-04 02:05 | 36.71222 | 126.62395 | 24321 ft | 482 kts | 169° |
| 2026-05-04 02:06 | 36.67979 | 126.63484 | 24715 ft | 484 kts | 169° |
| 2026-05-04 02:06 | 36.64699 | 126.64586 | 25120 ft | 485 kts | 169° |
| 2026-05-04 02:06 | 36.61479 | 126.65660 | 25482 ft | 486 kts | 170° |
| 2026-05-04 02:06 | 36.58172 | 126.66763 | 25916 ft | 485 kts | 170° |
| 2026-05-04 02:07 | 36.54933 | 126.67847 | 26324 ft | 486 kts | 170° |
| 2026-05-04 02:07 | 36.51666 | 126.68941 | 26703 ft | 487 kts | 170° |
| 2026-05-04 02:07 | 36.48391 | 126.70037 | 27065 ft | 488 kts | 170° |
| 2026-05-04 02:07 | 36.45093 | 126.71136 | 27416 ft | 489 kts | 171° |
| 2026-05-04 02:08 | 36.42914 | 126.71858 | 27644 ft | 490 kts | 171° |
| 2026-05-04 02:08 | 36.38551 | 126.73318 | 28103 ft | 491 kts | 171° |
| 2026-05-04 02:08 | 36.35260 | 126.74433 | 28504 ft | 491 kts | 171° |
| 2026-05-04 02:08 | 36.31968 | 126.75552 | 28908 ft | 490 kts | 172° |
| 2026-05-04 02:09 | 36.29752 | 126.76302 | 29238 ft | 487 kts | 172° |
| 2026-05-04 02:09 | 36.26509 | 126.77395 | 29765 ft | 483 kts | 173° |
| 2026-05-04 02:09 | 36.23279 | 126.78484 | 30225 ft | 480 kts | 173° |
| 2026-05-04 02:09 | 36.20080 | 126.79561 | 30601 ft | 477 kts | 174° |
| 2026-05-04 02:10 | 36.16888 | 126.80583 | 30890 ft | 470 kts | 179° |
| 2026-05-04 02:10 | 36.13715 | 126.81033 | 31269 ft | 449 kts | 191° |
| 2026-05-04 02:10 | 36.10634 | 126.80832 | 31661 ft | 437 kts | 196° |
| 2026-05-04 02:10 | 36.07628 | 126.80475 | 32040 ft | 432 kts | 197° |
| 2026-05-04 02:11 | 36.04645 | 126.80114 | 32409 ft | 429 kts | 197° |
| 2026-05-04 02:11 | 36.01682 | 126.79772 | 32761 ft | 426 kts | 197° |
| 2026-05-04 02:11 | 35.98738 | 126.79444 | 33096 ft | 424 kts | 198° |
| 2026-05-04 02:11 | 35.95811 | 126.79126 | 33420 ft | 420 kts | 199° |
| 2026-05-04 02:12 | 35.92926 | 126.78817 | 33842 ft | 412 kts | 199° |
| 2026-05-04 02:12 | 35.90073 | 126.78513 | 34043 ft | 406 kts | 200° |
| 2026-05-04 02:12 | 35.84474 | 126.77898 | 34047 ft | 404 kts | 200° |
| 2026-05-04 02:13 | 35.78894 | 126.77288 | 34036 ft | 403 kts | 200° |
| 2026-05-04 02:13 | 35.73384 | 126.76698 | 34040 ft | 396 kts | 201° |
| 2026-05-04 02:14 | 35.67903 | 126.76102 | 34043 ft | 395 kts | 201° |
| 2026-05-04 02:14 | 35.62419 | 126.75510 | 34044 ft | 396 kts | 201° |
| 2026-05-04 02:15 | 35.56958 | 126.74927 | 34004 ft | 388 kts | 201° |
| 2026-05-04 02:15 | 35.51584 | 126.74343 | 34036 ft | 391 kts | 201° |
| 2026-05-04 02:16 | 35.46173 | 126.73768 | 34057 ft | 390 kts | 201° |
| 2026-05-04 02:16 | 35.40763 | 126.73197 | 34055 ft | 390 kts | 201° |
| 2026-05-04 02:17 | 35.35387 | 126.72623 | 34025 ft | 385 kts | 201° |
| 2026-05-04 02:17 | 35.30063 | 126.72046 | 34046 ft | 384 kts | 201° |
| 2026-05-04 02:18 | 35.24736 | 126.71473 | 34054 ft | 384 kts | 201° |
| 2026-05-04 02:18 | 35.19385 | 126.70902 | 34015 ft | 387 kts | 200° |
| 2026-05-04 02:19 | 35.14046 | 126.70347 | 34049 ft | 381 kts | 201° |
| 2026-05-04 02:19 | 35.08763 | 126.69782 | 34058 ft | 380 kts | 201° |
| 2026-05-04 02:20 | 35.03537 | 126.69226 | 34071 ft | 380 kts | 201° |
| 2026-05-04 02:20 | 34.98264 | 126.68669 | 34070 ft | 380 kts | 201° |
| 2026-05-04 02:21 | 34.92998 | 126.68110 | 34066 ft | 380 kts | 201° |
| 2026-05-04 02:21 | 34.87727 | 126.67555 | 34065 ft | 380 kts | 201° |
| 2026-05-04 02:22 | 34.82457 | 126.66995 | 34065 ft | 380 kts | 201° |
| 2026-05-04 02:22 | 34.77197 | 126.66436 | 34061 ft | 378 kts | 200° |
| 2026-05-04 02:23 | 34.71961 | 126.65882 | 34072 ft | 378 kts | 200° |
| 2026-05-04 02:23 | 34.66710 | 126.65329 | 34059 ft | 378 kts | 201° |
| 2026-05-04 02:24 | 34.61359 | 126.64767 | 34076 ft | 379 kts | 200° |
| 2026-05-04 02:24 | 34.56203 | 126.64222 | 34056 ft | 379 kts | 200° |
| 2026-05-04 02:25 | 34.50975 | 126.63679 | 34076 ft | 377 kts | 200° |
| 2026-05-04 02:25 | 34.45751 | 126.63131 | 34084 ft | 377 kts | 200° |
| 2026-05-04 02:26 | 34.40539 | 126.62585 | 34029 ft | 377 kts | 200° |
| 2026-05-04 02:26 | 34.35312 | 126.62041 | 34069 ft | 377 kts | 200° |
| 2026-05-04 02:27 | 34.30089 | 126.61496 | 34086 ft | 377 kts | 200° |
| 2026-05-04 02:27 | 34.24855 | 126.60950 | 34087 ft | 377 kts | 200° |
| 2026-05-04 02:28 | 34.19626 | 126.60405 | 34033 ft | 378 kts | 199° |
| 2026-05-04 02:28 | 34.14355 | 126.59857 | 34091 ft | 378 kts | 199° |
| 2026-05-04 02:29 | 34.09148 | 126.59315 | 34097 ft | 378 kts | 199° |
| 2026-05-04 02:29 | 34.03907 | 126.58766 | 34100 ft | 378 kts | 199° |
| 2026-05-04 02:30 | 33.98661 | 126.58226 | 34067 ft | 379 kts | 199° |
| 2026-05-04 02:30 | 33.93395 | 126.57679 | 34097 ft | 380 kts | 199° |
| 2026-05-04 02:31 | 33.88126 | 126.57130 | 34112 ft | 380 kts | 199° |
| 2026-05-04 02:31 | 33.82957 | 126.56240 | 34111 ft | 363 kts | 208° |
| 2026-05-04 02:32 | 33.78215 | 126.54217 | 34068 ft | 362 kts | 211° |
| 2026-05-04 02:32 | 33.73487 | 126.52120 | 34120 ft | 363 kts | 211° |
| 2026-05-04 02:33 | 33.68759 | 126.50062 | 34163 ft | 363 kts | 212° |
| 2026-05-04 02:33 | 33.64023 | 126.48015 | 34142 ft | 362 kts | 211° |
| 2026-05-04 02:34 | 33.59266 | 126.45956 | 34110 ft | 365 kts | 210° |
| 2026-05-04 02:34 | 33.54476 | 126.43880 | 34136 ft | 367 kts | 210° |
| 2026-05-04 02:35 | 33.49669 | 126.41808 | 34142 ft | 368 kts | 210° |
| 2026-05-04 02:35 | 33.44852 | 126.39731 | 34141 ft | 368 kts | 210° |
| 2026-05-04 02:36 | 33.40029 | 126.37654 | 34114 ft | 369 kts | 210° |
| 2026-05-04 02:36 | 33.35194 | 126.35572 | 34123 ft | 369 kts | 210° |
| 2026-05-04 02:37 | 33.30358 | 126.33496 | 34128 ft | 369 kts | 210° |
| 2026-05-04 02:37 | 33.25514 | 126.31418 | 34130 ft | 370 kts | 210° |
| 2026-05-04 02:38 | 33.20674 | 126.29355 | 34114 ft | 368 kts | 209° |
| 2026-05-04 02:38 | 33.15865 | 126.27294 | 34130 ft | 368 kts | 209° |
| 2026-05-04 02:39 | 33.11042 | 126.25236 | 34140 ft | 368 kts | 209° |
| 2026-05-04 02:39 | 33.06214 | 126.23176 | 34139 ft | 368 kts | 209° |
| 2026-05-04 02:40 | 33.01420 | 126.21134 | 34135 ft | 368 kts | 209° |
| 2026-05-04 02:40 | 32.96595 | 126.19070 | 34135 ft | 368 kts | 210° |
| 2026-05-04 02:41 | 32.91775 | 126.16997 | 34138 ft | 368 kts | 210° |
| 2026-05-04 02:41 | 32.86931 | 126.14919 | 34139 ft | 369 kts | 210° |
| 2026-05-04 02:42 | 32.82093 | 126.12845 | 34129 ft | 370 kts | 209° |
| 2026-05-04 02:42 | 32.77251 | 126.10771 | 34137 ft | 370 kts | 209° |
| 2026-05-04 02:43 | 32.72405 | 126.08701 | 34136 ft | 370 kts | 209° |
| 2026-05-04 02:43 | 32.67561 | 126.06636 | 34138 ft | 370 kts | 209° |
| 2026-05-04 02:44 | 32.62705 | 126.04563 | 34137 ft | 371 kts | 209° |
| 2026-05-04 02:44 | 32.57838 | 126.02488 | 34138 ft | 372 kts | 209° |
| 2026-05-04 02:45 | 32.53001 | 126.00432 | 34145 ft | 372 kts | 209° |
| 2026-05-04 02:45 | 32.48128 | 125.98364 | 34139 ft | 372 kts | 209° |
| 2026-05-04 02:46 | 32.43245 | 125.96292 | 34129 ft | 373 kts | 208° |
| 2026-05-04 02:46 | 32.38350 | 125.94220 | 34142 ft | 374 kts | 208° |
| 2026-05-04 02:47 | 32.33455 | 125.92151 | 34142 ft | 374 kts | 208° |
| 2026-05-04 02:47 | 32.28556 | 125.90081 | 34110 ft | 374 kts | 208° |
| 2026-05-04 02:48 | 32.23654 | 125.88010 | 34137 ft | 374 kts | 208° |
| 2026-05-04 02:48 | 32.18745 | 125.85943 | 34157 ft | 374 kts | 208° |
| 2026-05-04 02:49 | 32.13837 | 125.83878 | 34157 ft | 375 kts | 208° |
| 2026-05-04 02:49 | 32.08927 | 125.81812 | 34124 ft | 375 kts | 208° |
| 2026-05-04 02:50 | 32.04021 | 125.79749 | 34147 ft | 374 kts | 209° |
| 2026-05-04 02:50 | 31.99113 | 125.77691 | 34152 ft | 374 kts | 209° |
| 2026-05-04 02:51 | 31.94206 | 125.75627 | 34153 ft | 374 kts | 209° |
| 2026-05-04 02:51 | 31.89269 | 125.73551 | 34123 ft | 378 kts | 209° |
| 2026-05-04 02:52 | 31.84337 | 125.71481 | 34146 ft | 376 kts | 208° |
| 2026-05-04 02:52 | 31.79407 | 125.69413 | 34154 ft | 376 kts | 208° |
| 2026-05-04 02:53 | 31.74478 | 125.67348 | 34159 ft | 376 kts | 208° |
| 2026-05-04 02:53 | 31.69552 | 125.65285 | 34121 ft | 376 kts | 209° |
| 2026-05-04 02:54 | 31.64661 | 125.63239 | 34150 ft | 372 kts | 209° |
| 2026-05-04 02:54 | 31.59794 | 125.61204 | 34160 ft | 373 kts | 209° |
| 2026-05-04 02:55 | 31.52467 | 125.58141 | 34162 ft | 373 kts | 209° |
| 2026-05-04 02:56 | 31.48411 | 125.56444 | 34144 ft | 370 kts | 209° |
| 2026-05-04 02:56 | 31.45995 | 125.55433 | 34251 ft | 368 kts | 209° |
| 2026-05-04 02:56 | 31.43584 | 125.54423 | 34419 ft | 368 kts | 209° |
| 2026-05-04 02:56 | 31.41176 | 125.53414 | 34593 ft | 368 kts | 210° |
| 2026-05-04 02:57 | 31.38768 | 125.52406 | 34759 ft | 367 kts | 210° |
| 2026-05-04 02:57 | 31.36360 | 125.51400 | 34923 ft | 367 kts | 210° |
| 2026-05-04 02:57 | 31.33955 | 125.50397 | 35078 ft | 367 kts | 210° |
| 2026-05-04 02:57 | 31.31545 | 125.49389 | 35209 ft | 369 kts | 210° |
| 2026-05-04 02:58 | 31.29123 | 125.48377 | 35252 ft | 370 kts | 210° |
| 2026-05-04 02:58 | 31.26697 | 125.47367 | 35381 ft | 370 kts | 210° |
| 2026-05-04 02:58 | 31.24274 | 125.46358 | 35540 ft | 369 kts | 210° |
| 2026-05-04 02:58 | 31.21855 | 125.45350 | 35693 ft | 369 kts | 210° |
| 2026-05-04 02:59 | 31.19440 | 125.44346 | 35845 ft | 368 kts | 210° |
| 2026-05-04 02:59 | 31.17028 | 125.43343 | 35985 ft | 368 kts | 210° |
| 2026-05-04 02:59 | 31.14618 | 125.42340 | 36116 ft | 368 kts | 210° |
| 2026-05-04 03:00 | 31.09806 | 125.40340 | 36193 ft | 366 kts | 210° |
| 2026-05-04 03:00 | 31.05026 | 125.38356 | 36179 ft | 366 kts | 210° |
| 2026-05-04 03:01 | 31.00229 | 125.36365 | 36175 ft | 366 kts | 210° |
| 2026-05-04 03:01 | 30.95426 | 125.34377 | 36172 ft | 366 kts | 210° |
| 2026-05-04 03:02 | 30.90625 | 125.32389 | 36171 ft | 366 kts | 210° |
| 2026-05-04 03:02 | 30.85827 | 125.30406 | 36162 ft | 366 kts | 210° |
| 2026-05-04 03:03 | 30.81032 | 125.28426 | 36170 ft | 366 kts | 210° |
| 2026-05-04 03:03 | 30.76238 | 125.26448 | 36175 ft | 366 kts | 210° |
| 2026-05-04 03:04 | 30.71438 | 125.24471 | 36189 ft | 367 kts | 210° |
| 2026-05-04 03:04 | 30.66613 | 125.22486 | 36148 ft | 368 kts | 210° |
| 2026-05-04 03:05 | 30.61793 | 125.20504 | 36171 ft | 367 kts | 210° |
| 2026-05-04 03:05 | 30.56976 | 125.18525 | 36176 ft | 367 kts | 210° |
| 2026-05-04 03:06 | 30.52156 | 125.16548 | 36177 ft | 367 kts | 210° |
| 2026-05-04 03:06 | 30.47334 | 125.14573 | 36145 ft | 368 kts | 210° |
| 2026-05-04 03:07 | 30.42506 | 125.12593 | 36173 ft | 368 kts | 210° |
| 2026-05-04 03:07 | 30.37672 | 125.10613 | 36186 ft | 368 kts | 210° |
| 2026-05-04 03:08 | 30.32839 | 125.08638 | 36178 ft | 368 kts | 210° |
| 2026-05-04 03:08 | 30.28004 | 125.06663 | 36176 ft | 368 kts | 210° |
| 2026-05-04 03:09 | 30.23180 | 125.04691 | 36165 ft | 372 kts | 210° |
| 2026-05-04 03:09 | 30.18266 | 125.02691 | 36175 ft | 372 kts | 210° |
| 2026-05-04 03:10 | 30.13418 | 125.00720 | 36176 ft | 372 kts | 210° |
| 2026-05-04 03:10 | 30.08541 | 124.98737 | 36196 ft | 370 kts | 210° |
| 2026-05-04 03:11 | 30.03675 | 124.96760 | 36153 ft | 372 kts | 210° |
| 2026-05-04 03:11 | 29.98796 | 124.94772 | 36167 ft | 371 kts | 210° |
| 2026-05-04 03:12 | 29.93967 | 124.92699 | 36171 ft | 370 kts | 210° |
| 2026-05-04 03:12 | 29.89141 | 124.90624 | 36168 ft | 370 kts | 210° |
| 2026-05-04 03:13 | 29.84303 | 124.88558 | 36127 ft | 372 kts | 210° |
| 2026-05-04 03:13 | 29.79417 | 124.86473 | 36161 ft | 375 kts | 210° |
| 2026-05-04 03:14 | 29.74512 | 124.84391 | 36170 ft | 376 kts | 210° |
| 2026-05-04 03:14 | 29.69611 | 124.82307 | 36171 ft | 376 kts | 210° |
| 2026-05-04 03:15 | 29.64706 | 124.80225 | 36144 ft | 376 kts | 210° |
| 2026-05-04 03:15 | 29.59790 | 124.78137 | 36158 ft | 377 kts | 210° |
| 2026-05-04 03:16 | 29.54889 | 124.76060 | 36179 ft | 377 kts | 210° |
| 2026-05-04 03:16 | 29.49954 | 124.73969 | 36167 ft | 377 kts | 210° |
| 2026-05-04 03:17 | 29.45046 | 124.71894 | 36173 ft | 375 kts | 210° |
| 2026-05-04 03:17 | 29.40130 | 124.69815 | 36156 ft | 378 kts | 210° |
| 2026-05-04 03:18 | 29.35203 | 124.67736 | 36171 ft | 379 kts | 210° |
| 2026-05-04 03:18 | 29.30260 | 124.65651 | 36171 ft | 378 kts | 210° |
| 2026-05-04 03:19 | 29.25313 | 124.63568 | 36170 ft | 378 kts | 210° |
| 2026-05-04 03:19 | 29.20354 | 124.61479 | 36147 ft | 380 kts | 210° |
| 2026-05-04 03:20 | 29.15286 | 124.59349 | 36165 ft | 380 kts | 210° |
| 2026-05-04 03:20 | 29.10434 | 124.57313 | 36168 ft | 380 kts | 210° |
| 2026-05-04 03:21 | 29.05463 | 124.55228 | 36172 ft | 380 kts | 210° |
| 2026-05-04 03:21 | 29.00497 | 124.53145 | 36172 ft | 380 kts | 210° |
| 2026-05-04 03:22 | 28.95576 | 124.50972 | 36170 ft | 374 kts | 215° |
| 2026-05-04 03:22 | 28.91299 | 124.47831 | 36172 ft | 365 kts | 223° |
| 2026-05-04 03:23 | 28.87156 | 124.44457 | 36176 ft | 364 kts | 223° |
| 2026-05-04 03:23 | 28.83034 | 124.41133 | 36172 ft | 364 kts | 222° |
| 2026-05-04 03:24 | 28.78843 | 124.37768 | 36163 ft | 366 kts | 222° |
| 2026-05-04 03:24 | 28.74718 | 124.34461 | 36171 ft | 366 kts | 222° |
| 2026-05-04 03:25 | 28.70536 | 124.31112 | 36171 ft | 366 kts | 222° |
| 2026-05-04 03:25 | 28.66367 | 124.27778 | 36172 ft | 366 kts | 222° |
| 2026-05-04 03:26 | 28.62202 | 124.24449 | 36171 ft | 367 kts | 222° |
| 2026-05-04 03:26 | 28.58010 | 124.21100 | 36168 ft | 368 kts | 222° |
| 2026-05-04 03:27 | 28.53803 | 124.17744 | 36165 ft | 368 kts | 222° |
| 2026-05-04 03:27 | 28.49610 | 124.14403 | 36169 ft | 368 kts | 222° |
| 2026-05-04 03:28 | 28.45413 | 124.11058 | 36161 ft | 368 kts | 222° |
| 2026-05-04 03:28 | 28.41229 | 124.07732 | 36133 ft | 369 kts | 222° |
| 2026-05-04 03:29 | 28.37025 | 124.04391 | 36165 ft | 369 kts | 222° |
| 2026-05-04 03:29 | 28.32812 | 124.01047 | 36179 ft | 369 kts | 222° |
| 2026-05-04 03:30 | 28.28628 | 123.97683 | 36183 ft | 369 kts | 223° |
| 2026-05-04 03:30 | 28.24486 | 123.94295 | 36193 ft | 368 kts | 223° |
| 2026-05-04 03:31 | 28.20330 | 123.90910 | 36153 ft | 369 kts | 222° |
| 2026-05-04 03:31 | 28.16143 | 123.87506 | 36176 ft | 370 kts | 222° |
| 2026-05-04 03:32 | 28.11954 | 123.84108 | 36179 ft | 370 kts | 222° |
| 2026-05-04 03:32 | 28.07772 | 123.80713 | 36179 ft | 370 kts | 222° |
| 2026-05-04 03:33 | 28.03586 | 123.77317 | 36182 ft | 370 kts | 222° |
| 2026-05-04 03:33 | 27.99382 | 123.73913 | 36157 ft | 373 kts | 222° |
| 2026-05-04 03:34 | 27.95149 | 123.70489 | 36177 ft | 375 kts | 222° |
| 2026-05-04 03:34 | 27.90882 | 123.67025 | 36184 ft | 373 kts | 222° |
| 2026-05-04 03:35 | 27.86728 | 123.63641 | 36181 ft | 372 kts | 222° |
| 2026-05-04 03:35 | 27.82512 | 123.60213 | 36177 ft | 372 kts | 222° |
| 2026-05-04 03:36 | 27.78296 | 123.56789 | 36166 ft | 375 kts | 222° |
| 2026-05-04 03:36 | 27.74059 | 123.53347 | 36169 ft | 375 kts | 222° |
| 2026-05-04 03:37 | 27.69839 | 123.49928 | 36171 ft | 376 kts | 222° |
| 2026-05-04 03:37 | 27.65595 | 123.46491 | 36173 ft | 375 kts | 222° |
| 2026-05-04 03:38 | 27.61334 | 123.43042 | 36175 ft | 375 kts | 222° |
| 2026-05-04 03:38 | 27.57065 | 123.39588 | 36157 ft | 380 kts | 222° |
| 2026-05-04 03:39 | 27.52765 | 123.36116 | 36175 ft | 381 kts | 222° |
| 2026-05-04 03:39 | 27.48450 | 123.32637 | 36173 ft | 381 kts | 222° |
| 2026-05-04 03:40 | 27.44144 | 123.29166 | 36172 ft | 381 kts | 222° |
| 2026-05-04 03:40 | 27.39832 | 123.25695 | 36155 ft | 382 kts | 222° |
| 2026-05-04 03:41 | 27.35493 | 123.22204 | 36170 ft | 384 kts | 222° |
| 2026-05-04 03:41 | 27.31134 | 123.18701 | 36168 ft | 384 kts | 222° |
| 2026-05-04 03:42 | 27.26782 | 123.15207 | 36174 ft | 383 kts | 222° |
| 2026-05-04 03:42 | 27.22484 | 123.11764 | 36169 ft | 382 kts | 222° |
| 2026-05-04 03:43 | 27.18141 | 123.08283 | 36147 ft | 384 kts | 222° |
| 2026-05-04 03:43 | 27.13776 | 123.04788 | 36165 ft | 386 kts | 222° |
| 2026-05-04 03:44 | 27.10148 | 123.01888 | 36176 ft | 386 kts | 222° |
| 2026-05-04 03:44 | 27.05028 | 122.97802 | 36184 ft | 386 kts | 222° |
| 2026-05-04 03:45 | 27.01366 | 122.94891 | 36176 ft | 386 kts | 222° |
| 2026-05-04 03:45 | 26.96996 | 122.91415 | 36174 ft | 386 kts | 222° |
| 2026-05-04 03:46 | 26.92634 | 122.87943 | 36176 ft | 383 kts | 222° |
| 2026-05-04 03:46 | 26.88289 | 122.84494 | 36176 ft | 383 kts | 222° |
| 2026-05-04 03:47 | 26.83943 | 122.81047 | 36170 ft | 383 kts | 222° |
| 2026-05-04 03:47 | 26.79589 | 122.77596 | 36183 ft | 383 kts | 222° |
| 2026-05-04 03:48 | 26.75228 | 122.74145 | 36169 ft | 386 kts | 222° |
| 2026-05-04 03:48 | 26.70852 | 122.70686 | 36175 ft | 385 kts | 222° |
| 2026-05-04 03:49 | 26.66506 | 122.67254 | 36163 ft | 380 kts | 222° |
| 2026-05-04 03:49 | 26.62197 | 122.63849 | 36172 ft | 381 kts | 222° |
| 2026-05-04 03:50 | 26.57829 | 122.60399 | 36178 ft | 386 kts | 222° |
| 2026-05-04 03:50 | 26.53437 | 122.56938 | 36160 ft | 388 kts | 222° |
| 2026-05-04 03:51 | 26.49207 | 122.53609 | 36160 ft | 389 kts | 222° |
| 2026-05-04 03:51 | 26.44790 | 122.50135 | 36159 ft | 387 kts | 222° |
| 2026-05-04 03:52 | 26.41856 | 122.47830 | 36161 ft | 383 kts | 222° |
| 2026-05-04 03:52 | 26.37818 | 122.44658 | 36158 ft | 379 kts | 222° |
| 2026-05-04 03:53 | 26.33457 | 122.41233 | 36135 ft | 387 kts | 222° |
| 2026-05-04 03:53 | 26.29015 | 122.37751 | 36157 ft | 392 kts | 222° |
| 2026-05-04 03:54 | 26.24584 | 122.34280 | 36167 ft | 391 kts | 222° |
| 2026-05-04 03:54 | 26.20119 | 122.30787 | 36159 ft | 390 kts | 222° |
| 2026-05-04 03:55 | 26.15714 | 122.27343 | 36160 ft | 387 kts | 222° |
| 2026-05-04 03:55 | 26.11322 | 122.23936 | 35777 ft | 384 kts | 221° |
| 2026-05-04 03:55 | 26.09136 | 122.22265 | 35527 ft | 388 kts | 221° |
| 2026-05-04 03:56 | 26.06908 | 122.20562 | 35283 ft | 389 kts | 221° |
| 2026-05-04 03:56 | 26.04671 | 122.18854 | 35051 ft | 390 kts | 220° |
| 2026-05-04 03:56 | 26.02434 | 122.17148 | 34817 ft | 391 kts | 220° |
| 2026-05-04 03:56 | 26.00164 | 122.15411 | 34583 ft | 391 kts | 220° |
| 2026-05-04 03:57 | 25.97945 | 122.13713 | 34357 ft | 392 kts | 220° |
| 2026-05-04 03:57 | 25.95697 | 122.11992 | 34127 ft | 393 kts | 220° |
| 2026-05-04 03:57 | 25.93445 | 122.10269 | 33868 ft | 393 kts | 220° |
| 2026-05-04 03:57 | 25.91175 | 122.08535 | 33608 ft | 394 kts | 220° |
| 2026-05-04 03:58 | 25.86633 | 122.05068 | 33086 ft | 398 kts | 220° |
| 2026-05-04 03:58 | 25.84349 | 122.03326 | 32828 ft | 399 kts | 220° |
| 2026-05-04 03:58 | 25.82069 | 122.01587 | 32585 ft | 400 kts | 220° |
| 2026-05-04 03:59 | 25.79775 | 121.99839 | 32332 ft | 401 kts | 219° |
| 2026-05-04 03:59 | 25.77479 | 121.98088 | 32093 ft | 400 kts | 219° |
| 2026-05-04 03:59 | 25.75183 | 121.96341 | 31849 ft | 399 kts | 219° |
| 2026-05-04 03:59 | 25.72897 | 121.94603 | 31606 ft | 398 kts | 219° |
| 2026-05-04 04:00 | 25.70622 | 121.92869 | 31365 ft | 396 kts | 219° |
| 2026-05-04 04:00 | 25.68368 | 121.91137 | 30870 ft | 392 kts | 219° |
| 2026-05-04 04:00 | 25.66180 | 121.89373 | 30300 ft | 386 kts | 224° |
| 2026-05-04 04:00 | 25.64257 | 121.87334 | 29583 ft | 380 kts | 232° |
| 2026-05-04 04:01 | 25.62709 | 121.84988 | 28892 ft | 375 kts | 240° |
| 2026-05-04 04:01 | 25.61418 | 121.82492 | 28236 ft | 372 kts | 242° |
| 2026-05-04 04:01 | 25.60168 | 121.79993 | 27593 ft | 369 kts | 242° |
| 2026-05-04 04:01 | 25.58920 | 121.77516 | 26955 ft | 368 kts | 242° |
| 2026-05-04 04:02 | 25.57656 | 121.75033 | 26307 ft | 366 kts | 242° |
| 2026-05-04 04:02 | 25.56425 | 121.72628 | 25707 ft | 363 kts | 242° |
| 2026-05-04 04:02 | 25.55187 | 121.70213 | 25111 ft | 361 kts | 242° |
| 2026-05-04 04:02 | 25.53950 | 121.67799 | 24495 ft | 359 kts | 242° |
| 2026-05-04 04:03 | 25.52724 | 121.65410 | 23886 ft | 355 kts | 242° |
| 2026-05-04 04:03 | 25.51506 | 121.63044 | 23207 ft | 352 kts | 242° |
| 2026-05-04 04:03 | 25.50302 | 121.60706 | 22553 ft | 347 kts | 242° |
| 2026-05-04 04:03 | 25.49103 | 121.58403 | 21901 ft | 343 kts | 240° |
| 2026-05-04 04:04 | 25.47719 | 121.56284 | 21306 ft | 341 kts | 233° |
| 2026-05-04 04:04 | 25.46188 | 121.54306 | 20743 ft | 336 kts | 232° |
| 2026-05-04 04:04 | 25.44659 | 121.52367 | 20203 ft | 332 kts | 232° |
| 2026-05-04 04:04 | 25.43095 | 121.50377 | 19671 ft | 329 kts | 233° |
| 2026-05-04 04:05 | 25.41659 | 121.48543 | 19207 ft | 327 kts | 233° |
| 2026-05-04 04:05 | 25.40167 | 121.46637 | 18750 ft | 327 kts | 233° |
| 2026-05-04 04:05 | 25.38675 | 121.44728 | 18256 ft | 327 kts | 233° |
| 2026-05-04 04:05 | 25.37197 | 121.42840 | 17720 ft | 322 kts | 232° |
| 2026-05-04 04:06 | 25.35746 | 121.40988 | 17232 ft | 319 kts | 232° |
| 2026-05-04 04:06 | 25.34305 | 121.39147 | 16756 ft | 316 kts | 232° |
| 2026-05-04 04:06 | 25.32872 | 121.37318 | 16306 ft | 315 kts | 232° |
| 2026-05-04 04:06 | 25.31421 | 121.35466 | 15849 ft | 314 kts | 232° |
| 2026-05-04 04:07 | 25.30024 | 121.33681 | 15408 ft | 308 kts | 232° |
| 2026-05-04 04:07 | 25.28633 | 121.31906 | 14991 ft | 304 kts | 232° |
| 2026-05-04 04:07 | 25.27242 | 121.30134 | 14545 ft | 301 kts | 232° |
| 2026-05-04 04:07 | 25.25884 | 121.28405 | 14112 ft | 296 kts | 232° |
| 2026-05-04 04:08 | 25.24543 | 121.26698 | 13668 ft | 294 kts | 232° |
| 2026-05-04 04:08 | 25.23200 | 121.24990 | 13240 ft | 295 kts | 232° |
| 2026-05-04 04:08 | 25.21859 | 121.23282 | 12822 ft | 295 kts | 231° |
| 2026-05-04 04:08 | 25.20515 | 121.21568 | 12428 ft | 294 kts | 231° |
| 2026-05-04 04:09 | 25.19171 | 121.19859 | 12017 ft | 296 kts | 231° |
| 2026-05-04 04:09 | 25.17814 | 121.18136 | 11619 ft | 299 kts | 231° |
| 2026-05-04 04:09 | 25.16449 | 121.16401 | 11210 ft | 299 kts | 231° |
| 2026-05-04 04:09 | 25.15087 | 121.14672 | 10838 ft | 296 kts | 231° |
| 2026-05-04 04:10 | 25.13767 | 121.12996 | 10617 ft | 283 kts | 231° |
| 2026-05-04 04:10 | 25.12516 | 121.11407 | 10458 ft | 269 kts | 231° |
| 2026-05-04 04:10 | 25.11320 | 121.09887 | 10281 ft | 257 kts | 231° |
| 2026-05-04 04:10 | 25.10165 | 121.08416 | 9984 ft | 251 kts | 231° |
| 2026-05-04 04:11 | 25.09020 | 121.06957 | 9456 ft | 252 kts | 231° |
| 2026-05-04 04:11 | 25.07868 | 121.05490 | 8901 ft | 254 kts | 230° |
| 2026-05-04 04:11 | 25.06719 | 121.04032 | 8481 ft | 251 kts | 230° |
| 2026-05-04 04:11 | 25.05579 | 121.02588 | 8120 ft | 247 kts | 229° |
| 2026-05-04 04:12 | 25.04453 | 121.01159 | 7832 ft | 244 kts | 229° |
| 2026-05-04 04:12 | 25.03351 | 120.99762 | 7539 ft | 239 kts | 229° |
| 2026-05-04 04:12 | 25.02270 | 120.98393 | 7229 ft | 238 kts | 229° |
| 2026-05-04 04:12 | 25.01188 | 120.97023 | 6902 ft | 237 kts | 228° |
| 2026-05-04 04:13 | 25.00111 | 120.95660 | 6599 ft | 235 kts | 228° |
| 2026-05-04 04:13 | 24.99020 | 120.94281 | 6281 ft | 240 kts | 227° |
| 2026-05-04 04:13 | 24.97921 | 120.92891 | 5967 ft | 244 kts | 228° |
| 2026-05-04 04:13 | 24.96793 | 120.91497 | 5649 ft | 243 kts | 222° |
| 2026-05-04 04:14 | 24.95310 | 120.90696 | 5334 ft | 240 kts | 188° |
| 2026-05-04 04:14 | 24.93656 | 120.90907 | 5058 ft | 243 kts | 159° |
| 2026-05-04 04:14 | 24.92290 | 120.91920 | 4869 ft | 235 kts | 134° |
| 2026-05-04 04:14 | 24.91502 | 120.93444 | 4800 ft | 229 kts | 107° |
| 2026-05-04 04:15 | 24.91309 | 120.95192 | 4880 ft | 231 kts | 92° |
| 2026-05-04 04:15 | 24.91290 | 120.96906 | 4806 ft | 217 kts | 92° |
| 2026-05-04 04:15 | 24.91264 | 120.98564 | 4834 ft | 217 kts | 93° |
| 2026-05-04 04:15 | 24.91226 | 121.00228 | 4869 ft | 218 kts | 91° |
| 2026-05-04 04:16 | 24.91590 | 121.01818 | 4692 ft | 216 kts | 60° |
| 2026-05-04 04:16 | 24.92478 | 121.03115 | 4442 ft | 209 kts | 49° |
| 2026-05-04 04:16 | 24.93471 | 121.04243 | 4178 ft | 202 kts | 47° |
| 2026-05-04 04:16 | 24.94479 | 121.05385 | 3910 ft | 193 kts | 53° |
| 2026-05-04 04:17 | 24.95288 | 121.06395 | 3730 ft | 180 kts | 53° |
| 2026-05-04 04:17 | 24.96087 | 121.07399 | 3514 ft | 166 kts | 54° |
| 2026-05-04 04:17 | 24.96817 | 121.08324 | 3269 ft | 155 kts | 54° |
| 2026-05-04 04:17 | 24.97500 | 121.09187 | 3050 ft | 145 kts | 54° |
| 2026-05-04 04:18 | 24.98135 | 121.09992 | 2854 ft | 134 kts | 53° |
| 2026-05-04 04:18 | 24.98710 | 121.10721 | 2706 ft | 120 kts | 53° |
| 2026-05-04 04:18 | 24.99242 | 121.11395 | 2548 ft | 112 kts | 53° |
| 2026-05-04 04:18 | 24.99750 | 121.12039 | 2412 ft | 110 kts | 52° |
| 2026-05-04 04:19 | 25.00254 | 121.12677 | 2252 ft | 111 kts | 51° |
| 2026-05-04 04:19 | 25.00757 | 121.13314 | 2095 ft | 110 kts | 51° |
| 2026-05-04 04:19 | 25.01252 | 121.13942 | 1951 ft | 109 kts | 51° |
| 2026-05-04 04:19 | 25.01749 | 121.14571 | 1807 ft | 106 kts | 51° |
| 2026-05-04 04:20 | 25.02230 | 121.15180 | 1664 ft | 104 kts | 52° |
| 2026-05-04 04:20 | 25.02707 | 121.15784 | 1500 ft | 106 kts | 52° |
| 2026-05-04 04:20 | 25.03188 | 121.16394 | 1387 ft | 105 kts | 51° |
| 2026-05-04 04:20 | 25.03668 | 121.17013 | 1227 ft | 108 kts | 49° |
| 2026-05-04 04:21 | 25.04161 | 121.17637 | 1094 ft | 105 kts | 48° |
| 2026-05-04 04:21 | 25.04652 | 121.18236 | 941 ft | 108 kts | 50° |
| 2026-05-04 04:21 | 25.05143 | 121.18867 | 799 ft | 106 kts | 51° |
| 2026-05-04 04:21 | 25.05636 | 121.19493 | 570 ft | 110 kts | 52° |
| 2026-05-04 04:22 | 25.06137 | 121.20141 | 426 ft | 114 kts | 52° |
| 2026-05-04 04:22 | 25.06647 | 121.20791 | 354 ft | 114 kts | 49° |
| 2026-05-04 04:22 | 25.07181 | 121.21451 | 185 ft | 117 kts | 51° |
| 2026-05-04 04:22 | 25.07709 | 121.22135 | 125 ft | 109 kts | 50° |
| 2026-05-04 04:23 | 25.08135 | 121.22682 | 106 ft | 62 kts | 49° |
| 2026-05-04 04:23 | 25.08241 | 121.22808 | 105 ft | 2 kts | 47° |
| 2026-05-04 04:23 | 25.08304 | 121.22888 | 106 ft | 17 kts | 49° |
| 2026-05-04 04:23 | 25.08384 | 121.22995 | 104 ft | 19 kts | 54° |
| 2026-05-04 04:24 | 25.08424 | 121.23100 | 104 ft | 5 kts | 72° |
| 2026-05-04 04:24 | 25.08437 | 121.23147 | 106 ft | 8 kts | 72° |
| 2026-05-04 04:24 | 25.08451 | 121.23217 | 106 ft | 11 kts | 83° |
| 2026-05-04 04:24 | 25.08458 | 121.23276 | 106 ft | 5 kts | 81° |
| 2026-05-04 04:25 | 25.08465 | 121.23325 | 106 ft | 8 kts | 80° |
| 2026-05-04 04:25 | 25.08477 | 121.23394 | 106 ft | 10 kts | 80° |
| 2026-05-04 04:25 | 25.08462 | 121.23478 | 106 ft | 13 kts | 129° |
| 2026-05-04 04:25 | 25.08380 | 121.23475 | 106 ft | 15 kts | 225° |
| 2026-05-04 04:26 | 25.08351 | 121.23456 | 106 ft | 3 kts | 184° |
| 2026-05-04 04:26 | 25.08323 | 121.23471 | 106 ft | 6 kts | 144° |
| 2026-05-04 04:26 | 25.08289 | 121.23502 | 105 ft | 0 kts | 139° |
| 2026-05-04 04:26 | 25.08283 | 121.23508 | 106 ft | 2 kts | 139° |
| 2026-05-04 04:27 | 25.08264 | 121.23526 | 106 ft | 5 kts | 139° |
| 2026-05-04 04:27 | 25.08251 | 121.23539 | 106 ft | 0 kts | 138° |